sensor_id;sensor_type;location;lat;lon;timestamp;P1;durP1;ratioP1;P2;durP2;ratioP2
52942;SDS011;38809;53.300;6.614;2023-02-05T00:01:19;7.97;;;6.13;;
52942;SDS011;38809;53.300;6.614;2023-02-05T00:03:45;8.57;;;6.75;;
52942;SDS011;38809;53.300;6.614;2023-02-05T00:06:11;8.10;;;6.35;;
52942;SDS011;38809;53.300;6.614;2023-02-05T00:08:36;8.17;;;5.83;;
52942;SDS011;38809;53.300;6.614;2023-02-05T00:11:02;7.90;;;6.63;;
52942;SDS011;38809;53.300;6.614;2023-02-05T00:13:37;8.15;;;6.20;;
52942;SDS011;38809;53.300;6.614;2023-02-05T00:16:10;9.15;;;6.75;;
52942;SDS011;38809;53.300;6.614;2023-02-05T00:18:44;7.38;;;5.95;;
52942;SDS011;38809;53.300;6.614;2023-02-05T00:21:10;8.27;;;6.50;;
52942;SDS011;38809;53.300;6.614;2023-02-05T00:23:37;7.50;;;6.25;;
52942;SDS011;38809;53.300;6.614;2023-02-05T00:26:04;8.20;;;6.07;;
52942;SDS011;38809;53.300;6.614;2023-02-05T00:28:31;8.60;;;6.55;;
52942;SDS011;38809;53.300;6.614;2023-02-05T00:30:58;11.82;;;7.20;;
52942;SDS011;38809;53.300;6.614;2023-02-05T00:33:24;9.18;;;7.32;;
52942;SDS011;38809;53.300;6.614;2023-02-05T00:35:49;8.23;;;6.07;;
52942;SDS011;38809;53.300;6.614;2023-02-05T00:38:15;9.70;;;6.63;;
52942;SDS011;38809;53.300;6.614;2023-02-05T00:40:41;12.82;;;6.47;;
52942;SDS011;38809;53.300;6.614;2023-02-05T00:43:07;8.80;;;6.60;;
52942;SDS011;38809;53.300;6.614;2023-02-05T00:45:33;8.13;;;6.53;;
52942;SDS011;38809;53.300;6.614;2023-02-05T00:48:04;9.53;;;6.30;;
52942;SDS011;38809;53.300;6.614;2023-02-05T00:50:31;8.23;;;6.22;;
52942;SDS011;38809;53.300;6.614;2023-02-05T00:55:23;10.05;;;6.20;;
52942;SDS011;38809;53.300;6.614;2023-02-05T00:57:48;7.90;;;6.45;;
52942;SDS011;38809;53.300;6.614;2023-02-05T01:00:15;7.73;;;6.23;;
52942;SDS011;38809;53.300;6.614;2023-02-05T01:02:41;7.65;;;5.63;;
52942;SDS011;38809;53.300;6.614;2023-02-05T01:05:07;9.38;;;5.75;;
52942;SDS011;38809;53.300;6.614;2023-02-05T01:07:33;10.38;;;7.35;;
52942;SDS011;38809;53.300;6.614;2023-02-05T01:09:59;9.47;;;6.93;;
52942;SDS011;38809;53.300;6.614;2023-02-05T01:12:24;8.67;;;6.60;;
52942;SDS011;38809;53.300;6.614;2023-02-05T01:14:50;11.32;;;6.82;;
52942;SDS011;38809;53.300;6.614;2023-02-05T01:17:17;11.30;;;6.95;;
52942;SDS011;38809;53.300;6.614;2023-02-05T01:19:43;8.63;;;6.00;;
52942;SDS011;38809;53.300;6.614;2023-02-05T01:22:09;8.40;;;7.03;;
52942;SDS011;38809;53.300;6.614;2023-02-05T01:24:35;10.82;;;6.90;;
52942;SDS011;38809;53.300;6.614;2023-02-05T01:27:01;9.00;;;6.60;;
52942;SDS011;38809;53.300;6.614;2023-02-05T01:29:28;12.15;;;7.15;;
52942;SDS011;38809;53.300;6.614;2023-02-05T01:31:54;8.65;;;6.13;;
52942;SDS011;38809;53.300;6.614;2023-02-05T01:34:19;7.33;;;5.40;;
52942;SDS011;38809;53.300;6.614;2023-02-05T01:36:46;10.55;;;6.78;;
52942;SDS011;38809;53.300;6.614;2023-02-05T01:39:11;10.77;;;6.85;;
52942;SDS011;38809;53.300;6.614;2023-02-05T01:41:37;9.93;;;7.13;;
52942;SDS011;38809;53.300;6.614;2023-02-05T01:46:43;10.98;;;6.95;;
52942;SDS011;38809;53.300;6.614;2023-02-05T01:49:18;11.02;;;6.97;;
52942;SDS011;38809;53.300;6.614;2023-02-05T01:51:50;11.93;;;7.22;;
52942;SDS011;38809;53.300;6.614;2023-02-05T01:54:19;17.42;;;8.18;;
52942;SDS011;38809;53.300;6.614;2023-02-05T01:57:29;14.20;;;8.57;;
52942;SDS011;38809;53.300;6.614;2023-02-05T01:59:39;12.15;;;8.00;;
52942;SDS011;38809;53.300;6.614;2023-02-05T02:02:07;15.65;;;8.50;;
52942;SDS011;38809;53.300;6.614;2023-02-05T02:04:47;14.32;;;8.10;;
52942;SDS011;38809;53.300;6.614;2023-02-05T02:07:17;13.63;;;8.82;;
52942;SDS011;38809;53.300;6.614;2023-02-05T02:09:45;12.90;;;7.55;;
52942;SDS011;38809;53.300;6.614;2023-02-05T02:12:13;16.25;;;9.02;;
52942;SDS011;38809;53.300;6.614;2023-02-05T02:14:44;14.90;;;8.35;;
52942;SDS011;38809;53.300;6.614;2023-02-05T02:17:14;19.40;;;9.77;;
52942;SDS011;38809;53.300;6.614;2023-02-05T02:19:43;12.50;;;8.15;;
52942;SDS011;38809;53.300;6.614;2023-02-05T02:27:55;12.07;;;7.38;;
52942;SDS011;38809;53.300;6.614;2023-02-05T02:30:30;16.48;;;8.07;;
52942;SDS011;38809;53.300;6.614;2023-02-05T02:38:44;15.70;;;8.85;;
52942;SDS011;38809;53.300;6.614;2023-02-05T02:41:26;13.80;;;8.30;;
52942;SDS011;38809;53.300;6.614;2023-02-05T02:43:56;16.73;;;8.43;;
52942;SDS011;38809;53.300;6.614;2023-02-05T02:46:44;15.15;;;8.05;;
52942;SDS011;38809;53.300;6.614;2023-02-05T02:49:16;17.60;;;8.43;;
52942;SDS011;38809;53.300;6.614;2023-02-05T02:51:55;19.17;;;8.98;;
52942;SDS011;38809;53.300;6.614;2023-02-05T02:54:24;19.75;;;9.60;;
52942;SDS011;38809;53.300;6.614;2023-02-05T02:56:52;18.60;;;9.07;;
52942;SDS011;38809;53.300;6.614;2023-02-05T02:59:21;18.13;;;9.90;;
52942;SDS011;38809;53.300;6.614;2023-02-05T03:01:51;16.55;;;8.55;;
52942;SDS011;38809;53.300;6.614;2023-02-05T03:04:22;22.50;;;10.13;;
52942;SDS011;38809;53.300;6.614;2023-02-05T03:06:52;20.20;;;10.30;;
52942;SDS011;38809;53.300;6.614;2023-02-05T03:11:56;19.35;;;10.75;;
52942;SDS011;38809;53.300;6.614;2023-02-05T03:16:48;18.98;;;10.35;;
52942;SDS011;38809;53.300;6.614;2023-02-05T03:19:13;25.37;;;11.57;;
52942;SDS011;38809;53.300;6.614;2023-02-05T03:21:40;18.40;;;10.23;;
52942;SDS011;38809;53.300;6.614;2023-02-05T03:24:07;21.63;;;10.27;;
52942;SDS011;38809;53.300;6.614;2023-02-05T03:26:34;23.42;;;10.38;;
52942;SDS011;38809;53.300;6.614;2023-02-05T03:29:04;26.40;;;11.75;;
52942;SDS011;38809;53.300;6.614;2023-02-05T03:36:44;22.45;;;10.27;;
52942;SDS011;38809;53.300;6.614;2023-02-05T03:42:11;20.80;;;11.90;;
52942;SDS011;38809;53.300;6.614;2023-02-05T03:50:31;20.33;;;10.30;;
52942;SDS011;38809;53.300;6.614;2023-02-05T03:53:27;25.00;;;11.40;;
52942;SDS011;38809;53.300;6.614;2023-02-05T03:56:15;27.80;;;12.45;;
52942;SDS011;38809;53.300;6.614;2023-02-05T03:58:47;24.38;;;12.82;;
52942;SDS011;38809;53.300;6.614;2023-02-05T04:01:16;24.23;;;11.50;;
52942;SDS011;38809;53.300;6.614;2023-02-05T04:03:43;29.85;;;13.35;;
52942;SDS011;38809;53.300;6.614;2023-02-05T04:06:08;30.77;;;13.77;;
52942;SDS011;38809;53.300;6.614;2023-02-05T04:08:34;25.98;;;12.63;;
52942;SDS011;38809;53.300;6.614;2023-02-05T04:11:00;27.70;;;11.68;;
52942;SDS011;38809;53.300;6.614;2023-02-05T04:13:26;32.05;;;14.10;;
52942;SDS011;38809;53.300;6.614;2023-02-05T04:15:51;28.65;;;12.73;;
52942;SDS011;38809;53.300;6.614;2023-02-05T04:18:17;27.73;;;13.87;;
52942;SDS011;38809;53.300;6.614;2023-02-05T04:20:43;25.27;;;13.90;;
52942;SDS011;38809;53.300;6.614;2023-02-05T04:23:09;30.00;;;14.50;;
52942;SDS011;38809;53.300;6.614;2023-02-05T04:25:35;27.98;;;13.93;;
52942;SDS011;38809;53.300;6.614;2023-02-05T04:28:02;27.83;;;13.68;;
52942;SDS011;38809;53.300;6.614;2023-02-05T04:30:29;34.80;;;13.32;;
52942;SDS011;38809;53.300;6.614;2023-02-05T04:32:56;32.13;;;15.48;;
52942;SDS011;38809;53.300;6.614;2023-02-05T04:35:22;31.67;;;13.80;;
52942;SDS011;38809;53.300;6.614;2023-02-05T04:37:47;30.38;;;12.13;;
52942;SDS011;38809;53.300;6.614;2023-02-05T04:40:13;33.53;;;13.70;;
52942;SDS011;38809;53.300;6.614;2023-02-05T04:42:39;29.70;;;13.20;;
52942;SDS011;38809;53.300;6.614;2023-02-05T04:45:05;31.83;;;14.00;;
52942;SDS011;38809;53.300;6.614;2023-02-05T04:49:57;26.88;;;13.65;;
52942;SDS011;38809;53.300;6.614;2023-02-05T04:52:23;32.30;;;15.00;;
52942;SDS011;38809;53.300;6.614;2023-02-05T04:54:48;31.80;;;14.13;;
52942;SDS011;38809;53.300;6.614;2023-02-05T04:57:14;34.37;;;15.10;;
52942;SDS011;38809;53.300;6.614;2023-02-05T04:59:40;33.67;;;14.63;;
52942;SDS011;38809;53.300;6.614;2023-02-05T05:02:05;25.97;;;13.53;;
52942;SDS011;38809;53.300;6.614;2023-02-05T05:04:31;29.20;;;11.97;;
52942;SDS011;38809;53.300;6.614;2023-02-05T05:06:57;35.58;;;14.45;;
52942;SDS011;38809;53.300;6.614;2023-02-05T05:09:23;35.90;;;16.05;;
52942;SDS011;38809;53.300;6.614;2023-02-05T05:11:52;30.08;;;14.02;;
52942;SDS011;38809;53.300;6.614;2023-02-05T05:14:20;29.88;;;13.65;;
52942;SDS011;38809;53.300;6.614;2023-02-05T05:16:47;27.48;;;12.85;;
52942;SDS011;38809;53.300;6.614;2023-02-05T05:19:13;31.00;;;13.75;;
52942;SDS011;38809;53.300;6.614;2023-02-05T05:21:39;28.10;;;13.27;;
52942;SDS011;38809;53.300;6.614;2023-02-05T05:24:04;35.70;;;15.00;;
52942;SDS011;38809;53.300;6.614;2023-02-05T05:26:30;31.80;;;14.18;;
52942;SDS011;38809;53.300;6.614;2023-02-05T05:28:56;27.03;;;10.40;;
52942;SDS011;38809;53.300;6.614;2023-02-05T05:31:22;19.13;;;8.95;;
52942;SDS011;38809;53.300;6.614;2023-02-05T05:33:48;15.07;;;7.18;;
52942;SDS011;38809;53.300;6.614;2023-02-05T05:36:14;10.07;;;3.78;;
52942;SDS011;38809;53.300;6.614;2023-02-05T05:38:41;16.70;;;3.38;;
52942;SDS011;38809;53.300;6.614;2023-02-05T05:41:08;9.98;;;2.08;;
52942;SDS011;38809;53.300;6.614;2023-02-05T05:44:01;12.88;;;2.75;;
52942;SDS011;38809;53.300;6.614;2023-02-05T05:46:26;12.97;;;2.27;;
52942;SDS011;38809;53.300;6.614;2023-02-05T05:48:56;11.70;;;2.53;;
52942;SDS011;38809;53.300;6.614;2023-02-05T05:51:25;11.30;;;2.47;;
52942;SDS011;38809;53.300;6.614;2023-02-05T05:53:52;11.07;;;1.88;;
52942;SDS011;38809;53.300;6.614;2023-02-05T05:56:18;8.73;;;1.42;;
52942;SDS011;38809;53.300;6.614;2023-02-05T06:01:11;8.73;;;1.63;;
52942;SDS011;38809;53.300;6.614;2023-02-05T06:03:38;9.20;;;1.60;;
52942;SDS011;38809;53.300;6.614;2023-02-05T06:06:04;9.20;;;1.80;;
52942;SDS011;38809;53.300;6.614;2023-02-05T06:08:32;12.18;;;1.75;;
52942;SDS011;38809;53.300;6.614;2023-02-05T06:10:58;10.55;;;1.35;;
52942;SDS011;38809;53.300;6.614;2023-02-05T06:13:24;7.15;;;1.10;;
52942;SDS011;38809;53.300;6.614;2023-02-05T06:15:52;11.23;;;1.92;;
52942;SDS011;38809;53.300;6.614;2023-02-05T06:18:20;7.80;;;1.40;;
52942;SDS011;38809;53.300;6.614;2023-02-05T06:20:46;16.50;;;2.17;;
52942;SDS011;38809;53.300;6.614;2023-02-05T06:23:12;11.93;;;1.63;;
52942;SDS011;38809;53.300;6.614;2023-02-05T06:25:38;8.82;;;1.48;;
52942;SDS011;38809;53.300;6.614;2023-02-05T06:28:04;12.10;;;1.25;;
52942;SDS011;38809;53.300;6.614;2023-02-05T06:30:30;15.02;;;2.05;;
52942;SDS011;38809;53.300;6.614;2023-02-05T06:32:55;15.07;;;2.00;;
52942;SDS011;38809;53.300;6.614;2023-02-05T06:35:22;10.43;;;2.50;;
52942;SDS011;38809;53.300;6.614;2023-02-05T06:37:47;11.55;;;2.00;;
52942;SDS011;38809;53.300;6.614;2023-02-05T06:40:14;10.37;;;1.47;;
52942;SDS011;38809;53.300;6.614;2023-02-05T06:42:42;7.07;;;1.40;;
52942;SDS011;38809;53.300;6.614;2023-02-05T06:47:34;10.85;;;2.22;;
52942;SDS011;38809;53.300;6.614;2023-02-05T06:50:00;14.27;;;2.70;;
52942;SDS011;38809;53.300;6.614;2023-02-05T06:52:26;14.37;;;2.43;;
52942;SDS011;38809;53.300;6.614;2023-02-05T06:54:51;11.60;;;2.70;;
52942;SDS011;38809;53.300;6.614;2023-02-05T06:57:17;15.87;;;2.97;;
52942;SDS011;38809;53.300;6.614;2023-02-05T06:59:42;11.40;;;1.80;;
52942;SDS011;38809;53.300;6.614;2023-02-05T07:02:09;9.10;;;1.70;;
52942;SDS011;38809;53.300;6.614;2023-02-05T07:04:38;18.85;;;2.92;;
52942;SDS011;38809;53.300;6.614;2023-02-05T07:07:03;15.97;;;2.70;;
52942;SDS011;38809;53.300;6.614;2023-02-05T07:09:30;13.98;;;2.45;;
52942;SDS011;38809;53.300;6.614;2023-02-05T07:11:56;19.13;;;3.13;;
52942;SDS011;38809;53.300;6.614;2023-02-05T07:14:21;14.93;;;2.95;;
52942;SDS011;38809;53.300;6.614;2023-02-05T07:16:47;14.30;;;2.37;;
52942;SDS011;38809;53.300;6.614;2023-02-05T07:19:13;14.98;;;2.60;;
52942;SDS011;38809;53.300;6.614;2023-02-05T07:21:38;16.80;;;2.53;;
52942;SDS011;38809;53.300;6.614;2023-02-05T07:24:04;14.40;;;2.90;;
52942;SDS011;38809;53.300;6.614;2023-02-05T07:26:30;14.25;;;2.08;;
52942;SDS011;38809;53.300;6.614;2023-02-05T07:28:56;13.60;;;2.33;;
52942;SDS011;38809;53.300;6.614;2023-02-05T07:31:21;18.63;;;3.27;;
52942;SDS011;38809;53.300;6.614;2023-02-05T07:33:47;16.53;;;2.83;;
52942;SDS011;38809;53.300;6.614;2023-02-05T07:36:14;15.47;;;3.43;;
52942;SDS011;38809;53.300;6.614;2023-02-05T07:38:42;17.77;;;3.10;;
52942;SDS011;38809;53.300;6.614;2023-02-05T07:41:10;17.33;;;2.65;;
52942;SDS011;38809;53.300;6.614;2023-02-05T07:43:37;11.05;;;2.45;;
52942;SDS011;38809;53.300;6.614;2023-02-05T07:46:04;21.35;;;3.35;;
52942;SDS011;38809;53.300;6.614;2023-02-05T07:48:33;14.68;;;3.58;;
52942;SDS011;38809;53.300;6.614;2023-02-05T07:50:59;18.63;;;2.95;;
52942;SDS011;38809;53.300;6.614;2023-02-05T07:53:25;20.30;;;3.97;;
52942;SDS011;38809;53.300;6.614;2023-02-05T07:55:51;17.02;;;2.45;;
52942;SDS011;38809;53.300;6.614;2023-02-05T07:58:16;12.77;;;2.78;;
52942;SDS011;38809;53.300;6.614;2023-02-05T08:00:42;16.48;;;3.38;;
52942;SDS011;38809;53.300;6.614;2023-02-05T08:03:08;16.30;;;2.70;;
52942;SDS011;38809;53.300;6.614;2023-02-05T08:05:35;16.63;;;2.97;;
52942;SDS011;38809;53.300;6.614;2023-02-05T08:08:01;14.52;;;3.70;;
52942;SDS011;38809;53.300;6.614;2023-02-05T08:10:27;20.00;;;2.78;;
52942;SDS011;38809;53.300;6.614;2023-02-05T08:12:53;12.43;;;2.42;;
52942;SDS011;38809;53.300;6.614;2023-02-05T08:15:19;11.55;;;2.65;;
52942;SDS011;38809;53.300;6.614;2023-02-05T08:17:45;14.75;;;2.55;;
52942;SDS011;38809;53.300;6.614;2023-02-05T08:20:11;14.27;;;2.90;;
52942;SDS011;38809;53.300;6.614;2023-02-05T08:22:38;13.65;;;2.95;;
52942;SDS011;38809;53.300;6.614;2023-02-05T08:25:06;14.90;;;2.63;;
52942;SDS011;38809;53.300;6.614;2023-02-05T08:27:34;13.60;;;2.55;;
52942;SDS011;38809;53.300;6.614;2023-02-05T08:30:05;15.18;;;2.90;;
52942;SDS011;38809;53.300;6.614;2023-02-05T08:32:33;12.90;;;2.40;;
52942;SDS011;38809;53.300;6.614;2023-02-05T08:34:59;18.05;;;3.47;;
52942;SDS011;38809;53.300;6.614;2023-02-05T08:37:25;17.73;;;3.05;;
52942;SDS011;38809;53.300;6.614;2023-02-05T08:39:52;14.88;;;2.70;;
52942;SDS011;38809;53.300;6.614;2023-02-05T08:42:18;10.07;;;1.97;;
52942;SDS011;38809;53.300;6.614;2023-02-05T08:44:44;8.07;;;2.22;;
52942;SDS011;38809;53.300;6.614;2023-02-05T08:47:10;14.02;;;1.98;;
52942;SDS011;38809;53.300;6.614;2023-02-05T08:49:35;15.05;;;2.45;;
52942;SDS011;38809;53.300;6.614;2023-02-05T08:52:01;17.83;;;2.57;;
52942;SDS011;38809;53.300;6.614;2023-02-05T08:54:27;13.43;;;2.60;;
52942;SDS011;38809;53.300;6.614;2023-02-05T08:56:52;14.90;;;2.83;;
52942;SDS011;38809;53.300;6.614;2023-02-05T08:59:18;11.55;;;2.05;;
52942;SDS011;38809;53.300;6.614;2023-02-05T09:01:44;12.52;;;2.10;;
52942;SDS011;38809;53.300;6.614;2023-02-05T09:04:14;11.32;;;2.17;;
52942;SDS011;38809;53.300;6.614;2023-02-05T09:06:42;14.52;;;2.20;;
52942;SDS011;38809;53.300;6.614;2023-02-05T09:09:08;9.35;;;1.60;;
52942;SDS011;38809;53.300;6.614;2023-02-05T09:11:34;10.25;;;1.65;;
52942;SDS011;38809;53.300;6.614;2023-02-05T09:13:59;15.07;;;2.23;;
52942;SDS011;38809;53.300;6.614;2023-02-05T09:16:25;13.17;;;2.13;;
52942;SDS011;38809;53.300;6.614;2023-02-05T09:18:54;12.50;;;1.90;;
52942;SDS011;38809;53.300;6.614;2023-02-05T09:21:21;12.43;;;2.13;;
52942;SDS011;38809;53.300;6.614;2023-02-05T09:23:48;9.10;;;1.92;;
52942;SDS011;38809;53.300;6.614;2023-02-05T09:26:14;14.25;;;2.65;;
52942;SDS011;38809;53.300;6.614;2023-02-05T09:28:40;15.02;;;2.97;;
52942;SDS011;38809;53.300;6.614;2023-02-05T09:31:07;10.00;;;2.13;;
52942;SDS011;38809;53.300;6.614;2023-02-05T09:33:36;13.27;;;2.38;;
52942;SDS011;38809;53.300;6.614;2023-02-05T09:36:09;13.50;;;2.33;;
52942;SDS011;38809;53.300;6.614;2023-02-05T09:38:39;19.02;;;3.30;;
52942;SDS011;38809;53.300;6.614;2023-02-05T09:41:07;15.40;;;2.70;;
52942;SDS011;38809;53.300;6.614;2023-02-05T09:48:57;13.27;;;3.08;;
52942;SDS011;38809;53.300;6.614;2023-02-05T09:51:49;17.25;;;3.33;;
52942;SDS011;38809;53.300;6.614;2023-02-05T09:56:49;16.83;;;2.88;;
52942;SDS011;38809;53.300;6.614;2023-02-05T09:59:18;24.00;;;4.10;;
52942;SDS011;38809;53.300;6.614;2023-02-05T10:02:30;22.17;;;3.70;;
52942;SDS011;38809;53.300;6.614;2023-02-05T10:04:53;20.50;;;4.50;;
52942;SDS011;38809;53.300;6.614;2023-02-05T10:07:34;19.93;;;3.93;;
52942;SDS011;38809;53.300;6.614;2023-02-05T10:13:12;30.52;;;5.35;;
52942;SDS011;38809;53.300;6.614;2023-02-05T10:19:02;12.98;;;2.60;;
52942;SDS011;38809;53.300;6.614;2023-02-05T10:27:38;17.02;;;3.38;;
52942;SDS011;38809;53.300;6.614;2023-02-05T10:30:15;16.17;;;2.92;;
52942;SDS011;38809;53.300;6.614;2023-02-05T10:32:53;13.98;;;2.50;;
52942;SDS011;38809;53.300;6.614;2023-02-05T10:35:26;17.05;;;3.33;;
52942;SDS011;38809;53.300;6.614;2023-02-05T10:38:14;20.08;;;4.30;;
52942;SDS011;38809;53.300;6.614;2023-02-05T10:40:43;17.13;;;3.20;;
52942;SDS011;38809;53.300;6.614;2023-02-05T10:43:18;19.48;;;3.28;;
52942;SDS011;38809;53.300;6.614;2023-02-05T10:45:50;26.00;;;3.75;;
52942;SDS011;38809;53.300;6.614;2023-02-05T10:51:08;23.67;;;4.35;;
52942;SDS011;38809;53.300;6.614;2023-02-05T10:53:48;22.63;;;4.55;;
52942;SDS011;38809;53.300;6.614;2023-02-05T10:56:17;25.83;;;4.25;;
52942;SDS011;38809;53.300;6.614;2023-02-05T10:58:53;23.38;;;5.13;;
52942;SDS011;38809;53.300;6.614;2023-02-05T11:06:31;23.05;;;3.50;;
52942;SDS011;38809;53.300;6.614;2023-02-05T11:12:04;33.20;;;5.28;;
52942;SDS011;38809;53.300;6.614;2023-02-05T11:14:39;25.92;;;5.50;;
52942;SDS011;38809;53.300;6.614;2023-02-05T11:19:53;26.13;;;5.13;;
52942;SDS011;38809;53.300;6.614;2023-02-05T11:22:24;26.67;;;5.30;;
52942;SDS011;38809;53.300;6.614;2023-02-05T11:28:15;29.05;;;5.03;;
52942;SDS011;38809;53.300;6.614;2023-02-05T11:30:43;25.42;;;5.28;;
52942;SDS011;38809;53.300;6.614;2023-02-05T11:35:57;23.20;;;4.72;;
52942;SDS011;38809;53.300;6.614;2023-02-05T11:38:30;24.05;;;5.15;;
52942;SDS011;38809;53.300;6.614;2023-02-05T11:41:08;30.92;;;5.40;;
52942;SDS011;38809;53.300;6.614;2023-02-05T11:43:47;27.48;;;5.85;;
52942;SDS011;38809;53.300;6.614;2023-02-05T11:46:18;23.30;;;5.28;;
52942;SDS011;38809;53.300;6.614;2023-02-05T11:54:00;21.00;;;5.22;;
52942;SDS011;38809;53.300;6.614;2023-02-05T11:56:28;22.98;;;4.35;;
52942;SDS011;38809;53.300;6.614;2023-02-05T12:01:29;21.45;;;4.95;;
52942;SDS011;38809;53.300;6.614;2023-02-05T12:03:59;24.23;;;5.47;;
52942;SDS011;38809;53.300;6.614;2023-02-05T12:06:46;26.40;;;4.53;;
52942;SDS011;38809;53.300;6.614;2023-02-05T12:09:21;21.67;;;4.72;;
52942;SDS011;38809;53.300;6.614;2023-02-05T12:20:19;28.98;;;5.47;;
52942;SDS011;38809;53.300;6.614;2023-02-05T12:25:41;24.23;;;4.40;;
52942;SDS011;38809;53.300;6.614;2023-02-05T12:32:18;26.17;;;5.07;;
52942;SDS011;38809;53.300;6.614;2023-02-05T12:35:15;20.77;;;4.57;;
52942;SDS011;38809;53.300;6.614;2023-02-05T12:45:24;25.00;;;5.13;;
52942;SDS011;38809;53.300;6.614;2023-02-05T12:50:36;24.98;;;4.65;;
52942;SDS011;38809;53.300;6.614;2023-02-05T12:58:41;19.63;;;4.13;;
52942;SDS011;38809;53.300;6.614;2023-02-05T13:01:20;23.45;;;5.10;;
52942;SDS011;38809;53.300;6.614;2023-02-05T13:03:52;26.35;;;4.68;;
52942;SDS011;38809;53.300;6.614;2023-02-05T13:09:07;25.50;;;4.90;;
52942;SDS011;38809;53.300;6.614;2023-02-05T13:11:49;25.15;;;5.05;;
52942;SDS011;38809;53.300;6.614;2023-02-05T13:14:30;24.30;;;4.07;;
52942;SDS011;38809;53.300;6.614;2023-02-05T13:17:11;19.85;;;4.07;;
52942;SDS011;38809;53.300;6.614;2023-02-05T13:19:50;23.30;;;4.05;;
52942;SDS011;38809;53.300;6.614;2023-02-05T13:22:34;22.05;;;3.75;;
52942;SDS011;38809;53.300;6.614;2023-02-05T13:25:40;18.17;;;4.38;;
52942;SDS011;38809;53.300;6.614;2023-02-05T13:31:12;22.30;;;5.18;;
52942;SDS011;38809;53.300;6.614;2023-02-05T13:34:04;26.15;;;5.32;;
52942;SDS011;38809;53.300;6.614;2023-02-05T13:36:42;27.60;;;5.53;;
52942;SDS011;38809;53.300;6.614;2023-02-05T13:39:21;24.00;;;5.35;;
52942;SDS011;38809;53.300;6.614;2023-02-05T13:50:27;21.42;;;5.13;;
52942;SDS011;38809;53.300;6.614;2023-02-05T13:53:17;20.90;;;4.82;;
52942;SDS011;38809;53.300;6.614;2023-02-05T13:58:28;17.25;;;3.60;;
52942;SDS011;38809;53.300;6.614;2023-02-05T14:01:18;24.83;;;5.10;;
52942;SDS011;38809;53.300;6.614;2023-02-05T14:08:57;31.33;;;6.70;;
52942;SDS011;38809;53.300;6.614;2023-02-05T14:11:41;23.25;;;6.40;;
52942;SDS011;38809;53.300;6.614;2023-02-05T14:14:29;25.85;;;6.45;;
52942;SDS011;38809;53.300;6.614;2023-02-05T14:17:51;24.85;;;6.03;;
52942;SDS011;38809;53.300;6.614;2023-02-05T14:19:51;25.55;;;5.60;;
52942;SDS011;38809;53.300;6.614;2023-02-05T14:22:56;24.65;;;5.50;;
52942;SDS011;38809;53.300;6.614;2023-02-05T14:27:59;25.33;;;5.03;;
52942;SDS011;38809;53.300;6.614;2023-02-05T14:38:44;25.05;;;5.80;;
52942;SDS011;38809;53.300;6.614;2023-02-05T14:44:04;25.52;;;3.75;;
52942;SDS011;38809;53.300;6.614;2023-02-05T14:51:58;34.07;;;5.97;;
52942;SDS011;38809;53.300;6.614;2023-02-05T14:54:28;33.00;;;5.38;;
52942;SDS011;38809;53.300;6.614;2023-02-05T14:59:41;29.17;;;6.13;;
52942;SDS011;38809;53.300;6.614;2023-02-05T15:08:03;29.92;;;4.43;;
52942;SDS011;38809;53.300;6.614;2023-02-05T15:13:38;30.30;;;5.70;;
52942;SDS011;38809;53.300;6.614;2023-02-05T15:18:32;32.00;;;6.55;;
52942;SDS011;38809;53.300;6.614;2023-02-05T15:21:15;34.53;;;6.63;;
52942;SDS011;38809;53.300;6.614;2023-02-05T15:23:45;28.48;;;4.95;;
52942;SDS011;38809;53.300;6.614;2023-02-05T15:26:18;37.13;;;7.10;;
52942;SDS011;38809;53.300;6.614;2023-02-05T15:28:56;34.22;;;6.20;;
52942;SDS011;38809;53.300;6.614;2023-02-05T15:31:56;37.00;;;6.17;;
52942;SDS011;38809;53.300;6.614;2023-02-05T15:37:22;27.63;;;5.38;;
52942;SDS011;38809;53.300;6.614;2023-02-05T15:39:57;36.92;;;7.05;;
52942;SDS011;38809;53.300;6.614;2023-02-05T15:42:28;30.65;;;5.57;;
52942;SDS011;38809;53.300;6.614;2023-02-05T15:45:14;32.75;;;6.63;;
52942;SDS011;38809;53.300;6.614;2023-02-05T15:47:40;26.90;;;5.93;;
52942;SDS011;38809;53.300;6.614;2023-02-05T15:50:08;28.08;;;6.47;;
52942;SDS011;38809;53.300;6.614;2023-02-05T15:52:38;29.50;;;6.03;;
52942;SDS011;38809;53.300;6.614;2023-02-05T15:55:14;33.33;;;6.43;;
52942;SDS011;38809;53.300;6.614;2023-02-05T15:57:42;23.70;;;6.70;;
52942;SDS011;38809;53.300;6.614;2023-02-05T16:00:09;30.90;;;5.53;;
52942;SDS011;38809;53.300;6.614;2023-02-05T16:02:51;25.95;;;5.78;;
52942;SDS011;38809;53.300;6.614;2023-02-05T16:05:24;21.02;;;4.10;;
52942;SDS011;38809;53.300;6.614;2023-02-05T16:07:52;25.83;;;5.40;;
52942;SDS011;38809;53.300;6.614;2023-02-05T16:10:27;34.85;;;6.35;;
52942;SDS011;38809;53.300;6.614;2023-02-05T16:18:01;28.63;;;5.28;;
52942;SDS011;38809;53.300;6.614;2023-02-05T16:20:32;29.88;;;5.80;;
52942;SDS011;38809;53.300;6.614;2023-02-05T16:23:36;32.33;;;5.93;;
52942;SDS011;38809;53.300;6.614;2023-02-05T16:26:02;29.90;;;5.55;;
52942;SDS011;38809;53.300;6.614;2023-02-05T16:28:49;27.88;;;7.00;;
52942;SDS011;38809;53.300;6.614;2023-02-05T16:31:20;34.83;;;8.88;;
52942;SDS011;38809;53.300;6.614;2023-02-05T16:34:02;25.45;;;5.22;;
52942;SDS011;38809;53.300;6.614;2023-02-05T16:36:31;30.67;;;6.03;;
52942;SDS011;38809;53.300;6.614;2023-02-05T16:39:02;22.75;;;5.20;;
52942;SDS011;38809;53.300;6.614;2023-02-05T16:41:32;24.25;;;5.25;;
52942;SDS011;38809;53.300;6.614;2023-02-05T16:44:02;21.13;;;5.70;;
52942;SDS011;38809;53.300;6.614;2023-02-05T16:46:30;29.98;;;6.93;;
52942;SDS011;38809;53.300;6.614;2023-02-05T16:56:53;29.38;;;6.20;;
52942;SDS011;38809;53.300;6.614;2023-02-05T17:04:52;26.10;;;5.82;;
52942;SDS011;38809;53.300;6.614;2023-02-05T17:07:19;27.77;;;5.65;;
52942;SDS011;38809;53.300;6.614;2023-02-05T17:09:46;26.17;;;4.93;;
52942;SDS011;38809;53.300;6.614;2023-02-05T17:14:51;28.30;;;4.85;;
52942;SDS011;38809;53.300;6.614;2023-02-05T17:17:26;24.40;;;5.30;;
52942;SDS011;38809;53.300;6.614;2023-02-05T17:20:27;24.95;;;5.32;;
52942;SDS011;38809;53.300;6.614;2023-02-05T17:28:27;26.85;;;6.32;;
52942;SDS011;38809;53.300;6.614;2023-02-05T17:30:54;25.42;;;6.18;;
52942;SDS011;38809;53.300;6.614;2023-02-05T17:33:25;31.02;;;5.57;;
52942;SDS011;38809;53.300;6.614;2023-02-05T17:35:52;31.25;;;6.03;;
52942;SDS011;38809;53.300;6.614;2023-02-05T17:38:17;27.02;;;6.20;;
52942;SDS011;38809;53.300;6.614;2023-02-05T17:40:44;25.38;;;5.00;;
52942;SDS011;38809;53.300;6.614;2023-02-05T17:43:11;26.00;;;5.60;;
52942;SDS011;38809;53.300;6.614;2023-02-05T17:45:39;24.52;;;5.50;;
52942;SDS011;38809;53.300;6.614;2023-02-05T17:48:06;30.33;;;5.47;;
52942;SDS011;38809;53.300;6.614;2023-02-05T17:50:32;27.35;;;4.95;;
52942;SDS011;38809;53.300;6.614;2023-02-05T17:52:59;24.65;;;5.57;;
52942;SDS011;38809;53.300;6.614;2023-02-05T17:55:26;22.60;;;4.80;;
52942;SDS011;38809;53.300;6.614;2023-02-05T17:57:51;22.30;;;4.57;;
52942;SDS011;38809;53.300;6.614;2023-02-05T18:00:21;19.30;;;4.27;;
52942;SDS011;38809;53.300;6.614;2023-02-05T18:02:49;22.90;;;4.93;;
52942;SDS011;38809;53.300;6.614;2023-02-05T18:05:15;23.70;;;5.10;;
52942;SDS011;38809;53.300;6.614;2023-02-05T18:07:46;23.00;;;5.43;;
52942;SDS011;38809;53.300;6.614;2023-02-05T18:10:17;29.55;;;5.82;;
52942;SDS011;38809;53.300;6.614;2023-02-05T18:12:52;26.27;;;5.65;;
52942;SDS011;38809;53.300;6.614;2023-02-05T18:15:19;20.60;;;5.82;;
52942;SDS011;38809;53.300;6.614;2023-02-05T18:17:46;24.13;;;6.75;;